sensor_id;sensor_type;location;lat;lon;timestamp;temperature;humidity
25568;DHT22;13455;51.480;7.594;2024-03-08T00:01:53;2.60;99.90
25568;DHT22;13455;51.480;7.594;2024-03-08T00:04:19;2.70;99.90
25568;DHT22;13455;51.480;7.594;2024-03-08T00:06:44;2.60;99.90
25568;DHT22;13455;51.480;7.594;2024-03-08T00:09:12;2.50;99.90
25568;DHT22;13455;51.480;7.594;2024-03-08T00:11:37;2.50;99.90
25568;DHT22;13455;51.480;7.594;2024-03-08T00:14:03;2.50;99.90
25568;DHT22;13455;51.480;7.594;2024-03-08T00:16:32;2.50;99.90
25568;DHT22;13455;51.480;7.594;2024-03-08T00:18:58;2.50;99.90
25568;DHT22;13455;51.480;7.594;2024-03-08T00:21:23;2.50;99.90
25568;DHT22;13455;51.480;7.594;2024-03-08T00:23:49;2.50;99.90
25568;DHT22;13455;51.480;7.594;2024-03-08T00:26:15;2.40;99.90
25568;DHT22;13455;51.480;7.594;2024-03-08T00:28:40;2.40;99.90
25568;DHT22;13455;51.480;7.594;2024-03-08T00:31:06;2.40;99.90
25568;DHT22;13455;51.480;7.594;2024-03-08T00:33:32;2.40;99.90
25568;DHT22;13455;51.480;7.594;2024-03-08T00:35:58;2.40;99.90
25568;DHT22;13455;51.480;7.594;2024-03-08T00:38:23;2.40;99.90
25568;DHT22;13455;51.480;7.594;2024-03-08T00:40:49;2.40;99.90
25568;DHT22;13455;51.480;7.594;2024-03-08T00:43:14;2.90;99.90
25568;DHT22;13455;51.480;7.594;2024-03-08T00:45:41;2.30;99.90
25568;DHT22;13455;51.480;7.594;2024-03-08T00:48:08;2.40;99.90
25568;DHT22;13455;51.480;7.594;2024-03-08T00:50:33;2.40;99.90
25568;DHT22;13455;51.480;7.594;2024-03-08T00:52:59;2.30;99.90
25568;DHT22;13455;51.480;7.594;2024-03-08T00:55:25;2.30;99.90
25568;DHT22;13455;51.480;7.594;2024-03-08T00:57:51;2.30;99.90
25568;DHT22;13455;51.480;7.594;2024-03-08T01:00:21;2.30;99.90
25568;DHT22;13455;51.480;7.594;2024-03-08T01:02:47;2.30;99.90
25568;DHT22;13455;51.480;7.594;2024-03-08T01:05:13;2.20;99.90
25568;DHT22;13455;51.480;7.594;2024-03-08T01:07:38;2.20;99.90
25568;DHT22;13455;51.480;7.594;2024-03-08T01:10:04;2.20;99.90
25568;DHT22;13455;51.480;7.594;2024-03-08T01:12:34;2.30;99.90
25568;DHT22;13455;51.480;7.594;2024-03-08T01:15:00;2.20;99.90
25568;DHT22;13455;51.480;7.594;2024-03-08T01:17:26;2.20;99.90
25568;DHT22;13455;51.480;7.594;2024-03-08T01:19:52;2.20;99.90
25568;DHT22;13455;51.480;7.594;2024-03-08T01:22:19;2.10;99.90
25568;DHT22;13455;51.480;7.594;2024-03-08T01:24:44;2.20;99.90
25568;DHT22;13455;51.480;7.594;2024-03-08T01:27:10;2.20;99.90
25568;DHT22;13455;51.480;7.594;2024-03-08T01:29:37;2.20;99.90
25568;DHT22;13455;51.480;7.594;2024-03-08T01:32:03;2.10;99.90
25568;DHT22;13455;51.480;7.594;2024-03-08T01:34:29;2.20;99.90
25568;DHT22;13455;51.480;7.594;2024-03-08T01:36:54;2.10;99.90
25568;DHT22;13455;51.480;7.594;2024-03-08T01:39:24;2.00;99.90
25568;DHT22;13455;51.480;7.594;2024-03-08T05:44:07;1.40;99.90
25568;DHT22;13455;51.480;7.594;2024-03-08T05:46:33;1.40;99.90
25568;DHT22;13455;51.480;7.594;2024-03-08T08:38:19;4.80;99.90
25568;DHT22;13455;51.480;7.594;2024-03-08T08:40:45;4.70;99.90
25568;DHT22;13455;51.480;7.594;2024-03-08T08:43:12;4.80;99.90
25568;DHT22;13455;51.480;7.594;2024-03-08T08:45:39;4.80;99.90
25568;DHT22;13455;51.480;7.594;2024-03-08T08:48:05;4.90;99.90
25568;DHT22;13455;51.480;7.594;2024-03-08T08:50:31;4.90;99.90
25568;DHT22;13455;51.480;7.594;2024-03-08T08:52:57;5.00;99.90
25568;DHT22;13455;51.480;7.594;2024-03-08T08:55:24;5.00;99.90
25568;DHT22;13455;51.480;7.594;2024-03-08T08:57:52;5.10;99.90
25568;DHT22;13455;51.480;7.594;2024-03-08T09:00:21;5.20;99.90
25568;DHT22;13455;51.480;7.594;2024-03-08T09:02:49;5.10;99.90
25568;DHT22;13455;51.480;7.594;2024-03-08T09:05:16;5.20;99.90
25568;DHT22;13455;51.480;7.594;2024-03-08T09:07:43;5.30;99.90
25568;DHT22;13455;51.480;7.594;2024-03-08T09:10:09;5.40;99.90
25568;DHT22;13455;51.480;7.594;2024-03-08T09:12:40;5.50;99.90
25568;DHT22;13455;51.480;7.594;2024-03-08T09:37:10;6.40;99.90
25568;DHT22;13455;51.480;7.594;2024-03-08T09:39:36;6.70;99.90
25568;DHT22;13455;51.480;7.594;2024-03-08T09:42:01;6.50;99.90
25568;DHT22;13455;51.480;7.594;2024-03-08T09:56:43;7.10;99.90
25568;DHT22;13455;51.480;7.594;2024-03-08T09:59:11;6.90;99.90
25568;DHT22;13455;51.480;7.594;2024-03-08T10:01:37;7.30;99.90
25568;DHT22;13455;51.480;7.594;2024-03-08T10:04:04;7.00;99.90
25568;DHT22;13455;51.480;7.594;2024-03-08T10:06:30;7.10;99.90
25568;DHT22;13455;51.480;7.594;2024-03-08T10:08:56;7.20;99.90
25568;DHT22;13455;51.480;7.594;2024-03-08T10:11:24;7.40;99.90
25568;DHT22;13455;51.480;7.594;2024-03-08T10:16:16;7.60;99.90
25568;DHT22;13455;51.480;7.594;2024-03-08T10:18:47;7.80;99.90
25568;DHT22;13455;51.480;7.594;2024-03-08T10:21:13;7.80;99.90
25568;DHT22;13455;51.480;7.594;2024-03-08T10:23:40;7.90;99.90
25568;DHT22;13455;51.480;7.594;2024-03-08T10:26:16;8.00;99.90
25568;DHT22;13455;51.480;7.594;2024-03-08T10:36:08;8.20;99.90
25568;DHT22;13455;51.480;7.594;2024-03-08T10:38:36;8.20;99.90
25568;DHT22;13455;51.480;7.594;2024-03-08T10:41:03;8.20;99.90
25568;DHT22;13455;51.480;7.594;2024-03-08T10:56:09;8.40;99.90
25568;DHT22;13455;51.480;7.594;2024-03-08T10:58:36;9.20;99.90
25568;DHT22;13455;51.480;7.594;2024-03-08T11:06:08;9.70;99.90
25568;DHT22;13455;51.480;7.594;2024-03-08T11:08:37;10.00;99.90
25568;DHT22;13455;51.480;7.594;2024-03-08T11:13:40;10.00;99.90
25568;DHT22;13455;51.480;7.594;2024-03-08T11:16:10;10.60;99.90
25568;DHT22;13455;51.480;7.594;2024-03-08T11:26:20;10.80;99.90
25568;DHT22;13455;51.480;7.594;2024-03-08T11:38:46;11.80;99.90
25568;DHT22;13455;51.480;7.594;2024-03-08T11:43:41;12.00;99.90
25568;DHT22;13455;51.480;7.594;2024-03-08T11:48:39;12.40;99.90
25568;DHT22;13455;51.480;7.594;2024-03-08T11:53:33;12.50;97.70
25568;DHT22;13455;51.480;7.594;2024-03-08T11:58:38;12.70;98.30
25568;DHT22;13455;51.480;7.594;2024-03-08T12:03:31;12.80;95.60
25568;DHT22;13455;51.480;7.594;2024-03-08T12:06:00;13.00;97.90
25568;DHT22;13455;51.480;7.594;2024-03-08T12:08:26;13.30;96.60
25568;DHT22;13455;51.480;7.594;2024-03-08T12:10:55;13.40;95.60
25568;DHT22;13455;51.480;7.594;2024-03-08T12:13:26;13.50;96.60
25568;DHT22;13455;51.480;7.594;2024-03-08T12:15:58;13.30;92.60
25568;DHT22;13455;51.480;7.594;2024-03-08T12:21:10;13.70;93.60
25568;DHT22;13455;51.480;7.594;2024-03-08T12:23:36;14.00;92.50
25568;DHT22;13455;51.480;7.594;2024-03-08T12:31:43;14.80;93.80
25568;DHT22;13455;51.480;7.594;2024-03-08T12:34:09;15.30;93.40
25568;DHT22;13455;51.480;7.594;2024-03-08T12:36:36;15.50;92.30
25568;DHT22;13455;51.480;7.594;2024-03-08T12:39:02;15.60;91.20
25568;DHT22;13455;51.480;7.594;2024-03-08T12:43:55;15.60;87.30
25568;DHT22;13455;51.480;7.594;2024-03-08T12:46:21;15.50;87.60
25568;DHT22;13455;51.480;7.594;2024-03-08T12:51:17;15.50;87.50
25568;DHT22;13455;51.480;7.594;2024-03-08T12:53:44;15.50;88.00
25568;DHT22;13455;51.480;7.594;2024-03-08T12:56:10;15.80;87.20
25568;DHT22;13455;51.480;7.594;2024-03-08T12:58:36;15.90;85.90
25568;DHT22;13455;51.480;7.594;2024-03-08T13:01:03;16.00;87.50
25568;DHT22;13455;51.480;7.594;2024-03-08T13:03:35;16.10;87.90
25568;DHT22;13455;51.480;7.594;2024-03-08T13:06:05;16.00;83.30
25568;DHT22;13455;51.480;7.594;2024-03-08T13:08:37;16.20;84.60
25568;DHT22;13455;51.480;7.594;2024-03-08T13:11:05;16.40;95.90
25568;DHT22;13455;51.480;7.594;2024-03-08T13:13:30;16.80;90.30
25568;DHT22;13455;51.480;7.594;2024-03-08T13:15:56;16.80;77.10
25568;DHT22;13455;51.480;7.594;2024-03-08T13:18:23;16.80;76.70
25568;DHT22;13455;51.480;7.594;2024-03-08T13:20:48;17.10;77.10
25568;DHT22;13455;51.480;7.594;2024-03-08T13:23:17;17.20;79.40
25568;DHT22;13455;51.480;7.594;2024-03-08T13:25:43;17.40;81.80
25568;DHT22;13455;51.480;7.594;2024-03-08T13:30:36;17.80;95.50
25568;DHT22;13455;51.480;7.594;2024-03-08T13:35:30;18.00;97.40
25568;DHT22;13455;51.480;7.594;2024-03-08T13:37:56;17.60;68.60
25568;DHT22;13455;51.480;7.594;2024-03-08T13:40:21;17.60;71.90
25568;DHT22;13455;51.480;7.594;2024-03-08T13:42:48;17.70;74.00
25568;DHT22;13455;51.480;7.594;2024-03-08T13:45:17;17.70;72.00
25568;DHT22;13455;51.480;7.594;2024-03-08T13:47:50;17.30;88.80
25568;DHT22;13455;51.480;7.594;2024-03-08T13:52:50;18.90;70.60
25568;DHT22;13455;51.480;7.594;2024-03-08T13:55:23;17.60;71.00
25568;DHT22;13455;51.480;7.594;2024-03-08T13:57:52;17.80;69.00
25568;DHT22;13455;51.480;7.594;2024-03-08T14:00:18;17.70;69.20
25568;DHT22;13455;51.480;7.594;2024-03-08T14:02:47;17.70;69.20
25568;DHT22;13455;51.480;7.594;2024-03-08T14:05:14;18.30;91.70
25568;DHT22;13455;51.480;7.594;2024-03-08T14:07:41;18.10;67.20
25568;DHT22;13455;51.480;7.594;2024-03-08T14:10:07;18.40;87.70
25568;DHT22;13455;51.480;7.594;2024-03-08T14:15:01;18.70;97.10
25568;DHT22;13455;51.480;7.594;2024-03-08T14:24:49;17.80;65.20
25568;DHT22;13455;51.480;7.594;2024-03-08T14:27:15;17.90;66.00
25568;DHT22;13455;51.480;7.594;2024-03-08T14:29:43;16.90;91.00
25568;DHT22;13455;51.480;7.594;2024-03-08T14:39:33;15.00;67.50
25568;DHT22;13455;51.480;7.594;2024-03-08T14:54:18;14.20;70.10
25568;DHT22;13455;51.480;7.594;2024-03-08T14:56:48;14.00;72.70
25568;DHT22;13455;51.480;7.594;2024-03-08T14:59:16;13.50;74.50
25568;DHT22;13455;51.480;7.594;2024-03-08T15:04:09;13.20;75.70
25568;DHT22;13455;51.480;7.594;2024-03-08T15:06:38;12.80;81.60
25568;DHT22;13455;51.480;7.594;2024-03-08T15:14:10;12.90;77.50
25568;DHT22;13455;51.480;7.594;2024-03-08T15:19:07;12.80;78.30
25568;DHT22;13455;51.480;7.594;2024-03-08T15:58:36;11.90;82.80
25568;DHT22;13455;51.480;7.594;2024-03-08T16:05:58;11.60;99.90
25568;DHT22;13455;51.480;7.594;2024-03-08T16:18:17;11.90;83.80
25568;DHT22;13455;51.480;7.594;2024-03-08T16:20:49;11.90;84.70
25568;DHT22;13455;51.480;7.594;2024-03-08T16:23:15;12.20;85.10
25568;DHT22;13455;51.480;7.594;2024-03-08T16:25:42;12.40;84.70
25568;DHT22;13455;51.480;7.594;2024-03-08T16:28:08;12.00;84.10
25568;DHT22;13455;51.480;7.594;2024-03-08T16:30:35;11.70;84.00
25568;DHT22;13455;51.480;7.594;2024-03-08T16:33:00;11.50;84.90
25568;DHT22;13455;51.480;7.594;2024-03-08T17:29:17;9.70;92.80
25568;DHT22;13455;51.480;7.594;2024-03-08T17:44:10;9.30;93.80
25568;DHT22;13455;51.480;7.594;2024-03-08T17:46:35;9.20;94.70
25568;DHT22;13455;51.480;7.594;2024-03-08T17:49:03;9.10;94.70
25568;DHT22;13455;51.480;7.594;2024-03-08T17:51:28;9.00;95.50
25568;DHT22;13455;51.480;7.594;2024-03-08T18:08:34;9.00;99.90
25568;DHT22;13455;51.480;7.594;2024-03-08T18:11:02;8.80;96.20
25568;DHT22;13455;51.480;7.594;2024-03-08T18:15:57;8.60;97.60
25568;DHT22;13455;51.480;7.594;2024-03-08T18:20:49;8.40;97.80
25568;DHT22;13455;51.480;7.594;2024-03-08T18:25:43;8.30;98.80
25568;DHT22;13455;51.480;7.594;2024-03-08T18:30:40;8.10;99.90
25568;DHT22;13455;51.480;7.594;2024-03-08T18:33:07;8.20;99.90
25568;DHT22;13455;51.480;7.594;2024-03-08T18:35:33;8.10;99.90
25568;DHT22;13455;51.480;7.594;2024-03-08T18:40:26;7.90;99.90
25568;DHT22;13455;51.480;7.594;2024-03-08T18:42:53;7.90;99.90
25568;DHT22;13455;51.480;7.594;2024-03-08T18:45:21;7.90;99.90
25568;DHT22;13455;51.480;7.594;2024-03-08T18:50:16;7.80;99.90
25568;DHT22;13455;51.480;7.594;2024-03-08T18:52:43;7.80;99.90
25568;DHT22;13455;51.480;7.594;2024-03-08T18:55:10;7.70;99.90
25568;DHT22;13455;51.480;7.594;2024-03-08T18:57:44;7.50;99.90
25568;DHT22;13455;51.480;7.594;2024-03-08T19:00:11;7.60;99.90
25568;DHT22;13455;51.480;7.594;2024-03-08T19:02:54;7.50;99.90
25568;DHT22;13455;51.480;7.594;2024-03-08T19:12:47;7.30;99.90
25568;DHT22;13455;51.480;7.594;2024-03-08T19:15:14;7.30;99.90
25568;DHT22;13455;51.480;7.594;2024-03-08T19:17:42;7.20;99.90
25568;DHT22;13455;51.480;7.594;2024-03-08T19:20:08;7.20;99.90
25568;DHT22;13455;51.480;7.594;2024-03-08T19:22:39;7.10;99.90
25568;DHT22;13455;51.480;7.594;2024-03-08T19:25:05;7.10;99.90
25568;DHT22;13455;51.480;7.594;2024-03-08T19:32:29;7.00;99.90
25568;DHT22;13455;51.480;7.594;2024-03-08T19:34:55;7.30;99.90
25568;DHT22;13455;51.480;7.594;2024-03-08T19:37:22;6.90;99.90
25568;DHT22;13455;51.480;7.594;2024-03-08T19:39:47;6.80;99.90
25568;DHT22;13455;51.480;7.594;2024-03-08T19:42:13;6.90;99.90
25568;DHT22;13455;51.480;7.594;2024-03-08T19:44:39;6.80;99.90
25568;DHT22;13455;51.480;7.594;2024-03-08T19:47:05;6.80;99.90
25568;DHT22;13455;51.480;7.594;2024-03-08T19:49:33;6.70;99.90
25568;DHT22;13455;51.480;7.594;2024-03-08T19:51:59;6.70;99.90
25568;DHT22;13455;51.480;7.594;2024-03-08T19:54:25;6.70;99.90
25568;DHT22;13455;51.480;7.594;2024-03-08T19:56:51;6.60;99.90
25568;DHT22;13455;51.480;7.594;2024-03-08T19:59:18;6.60;99.90
25568;DHT22;13455;51.480;7.594;2024-03-08T20:01:44;6.60;99.90
25568;DHT22;13455;51.480;7.594;2024-03-08T20:04:10;6.60;99.90
25568;DHT22;13455;51.480;7.594;2024-03-08T20:09:11;6.60;99.90
25568;DHT22;13455;51.480;7.594;2024-03-08T20:26:20;6.50;99.90
25568;DHT22;13455;51.480;7.594;2024-03-08T20:28:48;6.40;99.90
25568;DHT22;13455;51.480;7.594;2024-03-08T20:31:16;6.30;99.90
25568;DHT22;13455;51.480;7.594;2024-03-08T20:33:42;6.20;99.90
25568;DHT22;13455;51.480;7.594;2024-03-08T20:36:09;6.20;99.90
25568;DHT22;13455;51.480;7.594;2024-03-08T20:38:36;6.20;99.90
25568;DHT22;13455;51.480;7.594;2024-03-08T20:41:03;6.20;99.90
25568;DHT22;13455;51.480;7.594;2024-03-08T20:43:34;6.20;99.90
25568;DHT22;13455;51.480;7.594;2024-03-08T20:46:00;6.20;99.90
25568;DHT22;13455;51.480;7.594;2024-03-08T20:48:33;6.10;99.90
25568;DHT22;13455;51.480;7.594;2024-03-08T20:53:28;6.10;99.90
25568;DHT22;13455;51.480;7.594;2024-03-08T20:55:54;6.00;99.90
25568;DHT22;13455;51.480;7.594;2024-03-08T20:58:20;6.00;99.90
25568;DHT22;13455;51.480;7.594;2024-03-08T21:00:48;6.00;99.90
25568;DHT22;13455;51.480;7.594;2024-03-08T21:03:19;6.00;99.90
25568;DHT22;13455;51.480;7.594;2024-03-08T21:05:46;6.00;99.90
25568;DHT22;13455;51.480;7.594;2024-03-08T21:08:23;5.90;99.90
25568;DHT22;13455;51.480;7.594;2024-03-08T21:10:51;5.90;99.90
25568;DHT22;13455;51.480;7.594;2024-03-08T21:13:22;5.80;99.90
25568;DHT22;13455;51.480;7.594;2024-03-08T21:15:49;5.70;99.90
25568;DHT22;13455;51.480;7.594;2024-03-08T21:18:15;6.40;99.90
25568;DHT22;13455;51.480;7.594;2024-03-08T21:20:41;5.90;99.90
25568;DHT22;13455;51.480;7.594;2024-03-08T21:23:08;5.80;99.90
25568;DHT22;13455;51.480;7.594;2024-03-08T21:25:36;5.80;99.90
25568;DHT22;13455;51.480;7.594;2024-03-08T21:28:04;5.50;99.90
25568;DHT22;13455;51.480;7.594;2024-03-08T21:30:32;5.70;99.90
25568;DHT22;13455;51.480;7.594;2024-03-08T21:32:58;5.70;99.90
25568;DHT22;13455;51.480;7.594;2024-03-08T21:35:26;5.80;99.90
25568;DHT22;13455;51.480;7.594;2024-03-08T21:37:51;5.80;99.90
25568;DHT22;13455;51.480;7.594;2024-03-08T21:40:19;5.70;99.90
25568;DHT22;13455;51.480;7.594;2024-03-08T21:42:49;5.70;99.90
25568;DHT22;13455;51.480;7.594;2024-03-08T21:45:15;5.80;99.90
25568;DHT22;13455;51.480;7.594;2024-03-08T21:47:42;5.60;99.90
25568;DHT22;13455;51.480;7.594;2024-03-08T21:50:08;5.60;99.90
25568;DHT22;13455;51.480;7.594;2024-03-08T21:52:47;5.60;99.90
25568;DHT22;13455;51.480;7.594;2024-03-08T21:55:14;5.80;99.90
25568;DHT22;13455;51.480;7.594;2024-03-08T21:57:41;5.40;99.90
25568;DHT22;13455;51.480;7.594;2024-03-08T22:00:09;5.80;99.90
25568;DHT22;13455;51.480;7.594;2024-03-08T22:02:42;5.50;99.90
25568;DHT22;13455;51.480;7.594;2024-03-08T22:05:11;5.50;99.90
25568;DHT22;13455;51.480;7.594;2024-03-08T22:07:49;5.40;99.90
25568;DHT22;13455;51.480;7.594;2024-03-08T22:10:16;5.40;99.90
25568;DHT22;13455;51.480;7.594;2024-03-08T22:12:48;5.40;99.90
25568;DHT22;13455;51.480;7.594;2024-03-08T22:15:15;5.50;99.90
25568;DHT22;13455;51.480;7.594;2024-03-08T22:17:45;5.20;99.90
25568;DHT22;13455;51.480;7.594;2024-03-08T22:22:51;5.30;99.90
25568;DHT22;13455;51.480;7.594;2024-03-08T22:25:17;5.50;99.90
25568;DHT22;13455;51.480;7.594;2024-03-08T22:27:46;5.20;99.90
25568;DHT22;13455;51.480;7.594;2024-03-08T22:30:16;5.20;99.90
25568;DHT22;13455;51.480;7.594;2024-03-08T22:32:44;5.20;99.90
